YYQ weather

Churchill Airport
Churchill, Manitoba, Canada

Public forecast

Using degrees Celsius for public forecast. Weather courtesy of forecast.io.

METAR (pilot weather report)

Retrieved 2019/06/26 23:00 UTC (50 minutes ago):

CYYQ 262300Z 04011KT 15SM SCT120 BKN250 05/02 A3000 RMK AC3CI4 SLP164

TAF (pilot weather forecast)

Retrieved 2019/06/26 18:39 UTC (5 hours ago):

TAF CYYQ 261738Z 2618/2718 02012KT P6SM FEW080 OVC120 FM270800 36012KT P6SM FEW008 BKN120 OVC160 RMK NXT FCST BY 270000Z